Private Wetterstation Sandau
Wetterdaten: Samstag, 19.01.2013
Datum Zeit Temp. A. Feuchte A. Luftdruck Regen Wind Richtung Richtung Taupunkt Windchill
19.01.2013 00:01 -2,7 C 77 % 1009,9 hPa 0,0 l/m 7,6 km/h (2 Bft) O-SO 112 -6,2 C -5,8 C
19.01.2013 00:06 -2,7 C 77 % 1010,0 hPa 0,0 l/m 4,0 km/h (1 Bft) O 90 -6,2 C -2,7 C
19.01.2013 00:11 -2,7 C 77 % 1009,9 hPa 0,0 l/m 2,9 km/h (1 Bft) O 90 -6,2 C -2,7 C
19.01.2013 00:16 -2,7 C 78 % 1009,8 hPa 0,0 l/m 6,8 km/h (2 Bft) O-NO 67 -6,0 C -5,5 C
19.01.2013 00:21 -2,7 C 77 % 1009,8 hPa 0,0 l/m 5,8 km/h (2 Bft) O-NO 67 -6,2 C -5,0 C
19.01.2013 00:26 -2,7 C 77 % 1009,9 hPa 0,0 l/m 9,0 km/h (2 Bft) O 90 -6,2 C -6,2 C
19.01.2013 00:31 -2,7 C 77 % 1009,5 hPa 0,0 l/m 14,4 km/h (3 Bft) SO 135 -6,2 C -7,6 C
19.01.2013 00:36 -2,7 C 77 % 1009,8 hPa 0,0 l/m 7,2 km/h (2 Bft) O-SO 112 -6,2 C -5,6 C
19.01.2013 00:41 -2,7 C 77 % 1009,6 hPa 0,0 l/m 11,9 km/h (2 Bft) O 90 -6,2 C -7,0 C
19.01.2013 00:46 -2,8 C 77 % 1009,7 hPa 0,0 l/m 2,5 km/h (1 Bft) SO 135 -6,3 C -2,8 C
19.01.2013 00:51 -2,8 C 78 % 1009,5 hPa 0,0 l/m 19,1 km/h (3 Bft) O-SO 112 -6,1 C -8,6 C
19.01.2013 00:56 -2,8 C 76 % 1009,5 hPa 0,0 l/m 5,8 km/h (2 Bft) O-SO 112 -6,4 C -5,2 C
19.01.2013 01:01 -2,8 C 76 % 1009,5 hPa 0,0 l/m 11,2 km/h (2 Bft) O 90 -6,4 C -7,0 C
19.01.2013 01:06 -2,9 C 76 % 1009,3 hPa 0,0 l/m 10,4 km/h (2 Bft) O-NO 67 -6,5 C -6,9 C
19.01.2013 01:11 -2,9 C 76 % 1009,2 hPa 0,0 l/m 16,6 km/h (3 Bft) O 90 -6,5 C -8,3 C
19.01.2013 01:16 -3,0 C 76 % 1009,2 hPa 0,0 l/m 9,4 km/h (2 Bft) O-SO 112 -6,6 C -6,7 C
19.01.2013 01:21 -3,1 C 76 % 1009,1 hPa 0,0 l/m 7,6 km/h (2 Bft) O 90 -6,7 C -6,2 C
19.01.2013 01:26 -3,1 C 76 % 1009,2 hPa 0,0 l/m 18,0 km/h (3 Bft) O-SO 112 -6,7 C -8,8 C
19.01.2013 01:31 -3,1 C 76 % 1009,1 hPa 0,0 l/m 10,8 km/h (2 Bft) O-SO 112 -6,7 C -7,2 C
19.01.2013 01:36 -3,2 C 76 % 1009,1 hPa 0,0 l/m 13,3 km/h (3 Bft) O-SO 112 -6,8 C -8,0 C
19.01.2013 01:41 -3,2 C 76 % 1009,1 hPa 0,0 l/m 13,7 km/h (3 Bft) O 90 -6,8 C -8,1 C
19.01.2013 01:46 -3,2 C 76 % 1008,9 hPa 0,0 l/m 9,4 km/h (2 Bft) O-NO 67 -6,8 C -7,0 C
19.01.2013 01:51 -3,3 C 76 % 1009,0 hPa 0,0 l/m 13,0 km/h (3 Bft) O-NO 67 -6,9 C -8,0 C
19.01.2013 01:56 -3,3 C 76 % 1009,1 hPa 0,0 l/m 10,1 km/h (2 Bft) O 90 -6,9 C -7,3 C
19.01.2013 02:01 -3,4 C 76 % 1008,8 hPa 0,0 l/m 16,9 km/h (3 Bft) O-NO 67 -7,0 C -9,0 C
19.01.2013 02:06 -3,4 C 76 % 1008,9 hPa 0,0 l/m 5,0 km/h (1 Bft) O 90 -7,0 C -5,4 C
19.01.2013 02:11 -3,4 C 76 % 1008,8 hPa 0,0 l/m 5,0 km/h (1 Bft) O-NO 67 -7,0 C -5,4 C
19.01.2013 02:16 -3,5 C 76 % 1008,7 hPa 0,0 l/m 6,1 km/h (2 Bft) O-SO 112 -7,1 C -6,1 C
19.01.2013 02:21 -3,5 C 77 % 1008,8 hPa 0,0 l/m 19,1 km/h (3 Bft) O-SO 112 -6,9 C -9,5 C
19.01.2013 02:26 -3,5 C 77 % 1008,9 hPa 0,0 l/m 5,8 km/h (2 Bft) O 90 -6,9 C -6,0 C
19.01.2013 02:31 -3,5 C 77 % 1008,7 hPa 0,0 l/m 9,4 km/h (2 Bft) O-NO 67 -6,9 C -7,3 C
19.01.2013 02:36 -3,6 C 77 % 1008,8 hPa 0,0 l/m 8,3 km/h (2 Bft) O 90 -7,0 C -7,1 C
19.01.2013 02:41 -3,6 C 77 % 1008,8 hPa 0,0 l/m 9,0 km/h (2 Bft) O-NO 67 -7,0 C -7,3 C
19.01.2013 02:46 -3,6 C 77 % 1008,8 hPa 0,0 l/m 5,0 km/h (1 Bft) SO 135 -7,0 C -5,7 C
19.01.2013 02:51 -3,7 C 77 % 1008,8 hPa 0,0 l/m 19,8 km/h (3 Bft) O-NO 67 -7,1 C -9,9 C
19.01.2013 02:56 -3,8 C 76 % 1008,8 hPa 0,0 l/m 21,6 km/h (4 Bft) SO 135 -7,4 C -10,3 C
19.01.2013 03:01 -3,9 C 77 % 1008,9 hPa 0,0 l/m 9,0 km/h (2 Bft) O-NO 67 -7,3 C -7,7 C
19.01.2013 03:06 -3,9 C 77 % 1008,9 hPa 0,0 l/m 13,7 km/h (3 Bft) O-SO 112 -7,3 C -8,9 C
19.01.2013 03:11 -3,9 C 77 % 1008,6 hPa 0,0 l/m 7,2 km/h (2 Bft) O-SO 112 -7,3 C -7,0 C
19.01.2013 03:16 -4,1 C 77 % 1008,7 hPa 0,0 l/m 10,1 km/h (2 Bft) O-SO 112 -7,5 C -8,2 C
19.01.2013 03:21 -4,1 C 78 % 1008,7 hPa 0,0 l/m 8,6 km/h (2 Bft) O-SO 112 -7,4 C -7,8 C
19.01.2013 03:26 -4,1 C 78 % 1008,7 hPa 0,0 l/m 12,2 km/h (2 Bft) O-SO 112 -7,4 C -8,8 C
19.01.2013 03:31 -4,1 C 78 % 1008,6 hPa 0,0 l/m 14,0 km/h (3 Bft) O-SO 112 -7,4 C -9,3 C
19.01.2013 03:36 -4,1 C 78 % 1008,6 hPa 0,0 l/m 4,0 km/h (1 Bft) O-NO 67 -7,4 C -4,1 C
19.01.2013 03:41 -4,1 C 78 % 1008,6 hPa 0,0 l/m 9,7 km/h (2 Bft) O-NO 67 -7,4 C -8,1 C
19.01.2013 03:46 -4,2 C 78 % 1008,5 hPa 0,0 l/m 8,3 km/h (2 Bft) O-NO 67 -7,4 C -7,8 C
19.01.2013 03:51 -4,2 C 78 % 1008,5 hPa 0,0 l/m 22,0 km/h (4 Bft) NO 45 -7,4 C -10,9 C
19.01.2013 03:56 -4,2 C 78 % 1008,4 hPa 0,0 l/m 10,1 km/h (2 Bft) NO 45 -7,4 C -8,4 C
19.01.2013 04:01 -4,2 C 78 % 1008,3 hPa 0,0 l/m 16,6 km/h (3 Bft) O-NO 67 -7,4 C -9,9 C
19.01.2013 04:06 -4,2 C 79 % 1008,1 hPa 0,0 l/m 10,1 km/h (2 Bft) O 90 -7,3 C -8,4 C
19.01.2013 04:11 -4,4 C 78 % 1008,3 hPa 0,0 l/m 19,8 km/h (3 Bft) O-SO 112 -7,6 C -10,8 C
19.01.2013 04:16 -4,4 C 78 % 1008,2 hPa 0,0 l/m 18,7 km/h (3 Bft) O-NO 67 -7,6 C -10,6 C
19.01.2013 04:21 -4,4 C 78 % 1008,2 hPa 0,0 l/m 5,4 km/h (1 Bft) O-SO 112 -7,6 C -6,8 C
19.01.2013 04:26 -4,4 C 78 % 1008,1 hPa 0,0 l/m 6,5 km/h (2 Bft) S-SO 157 -7,6 C -7,3 C
19.01.2013 04:31 -4,4 C 78 % 1008,1 hPa 0,0 l/m 15,8 km/h (3 Bft) O 90 -7,6 C -10,0 C
19.01.2013 04:36 -4,5 C 78 % 1008,1 hPa 0,0 l/m 13,3 km/h (3 Bft) SO 135 -7,7 C -9,6 C
19.01.2013 04:41 -4,5 C 78 % 1008,1 hPa 0,0 l/m 16,6 km/h (3 Bft) O-SO 112 -7,7 C -10,3 C
19.01.2013 04:46 -4,5 C 79 % 1008,0 hPa 0,0 l/m 8,6 km/h (2 Bft) O 90 -7,6 C -8,2 C
19.01.2013 04:51 -4,5 C 79 % 1007,7 hPa 0,0 l/m 19,1 km/h (3 Bft) O-NO 67 -7,6 C -10,8 C
19.01.2013 04:56 -4,6 C 79 % 1007,6 hPa 0,0 l/m 19,4 km/h (3 Bft) O-SO 112 -7,7 C -10,9 C
19.01.2013 05:01 -4,6 C 79 % 1007,6 hPa 0,0 l/m 8,3 km/h (2 Bft) O-SO 112 -7,7 C -8,2 C
19.01.2013 05:06 -4,6 C 79 % 1007,6 hPa 0,0 l/m 9,0 km/h (2 Bft) SO 135 -7,7 C -8,5 C
19.01.2013 05:11 -4,7 C 79 % 1007,5 hPa 0,0 l/m 13,3 km/h (3 Bft) O 90 -7,8 C -9,8 C
19.01.2013 05:16 -4,7 C 79 % 1007,4 hPa 0,0 l/m 6,5 km/h (2 Bft) O 90 -7,8 C -7,7 C
19.01.2013 05:21 -4,7 C 79 % 1007,5 hPa 0,0 l/m 8,6 km/h (2 Bft) O 90 -7,8 C -8,5 C
19.01.2013 05:26 -4,8 C 80 % 1007,4 hPa 0,0 l/m 11,2 km/h (2 Bft) O-SO 112 -7,7 C -9,4 C
19.01.2013 05:31 -4,8 C 80 % 1007,4 hPa 0,0 l/m 10,1 km/h (2 Bft) O 90 -7,7 C -9,1 C
19.01.2013 05:36 -4,8 C 80 % 1007,6 hPa 0,0 l/m 9,4 km/h (2 Bft) SO 135 -7,7 C -8,9 C
19.01.2013 05:41 -4,8 C 80 % 1007,5 hPa 0,0 l/m 14,4 km/h (3 Bft) S 180 -7,7 C -10,2 C
19.01.2013 05:46 -4,8 C 80 % 1007,5 hPa 0,0 l/m 10,8 km/h (2 Bft) S-SO 157 -7,7 C -9,3 C
19.01.2013 05:51 -4,8 C 80 % 1007,3 hPa 0,0 l/m 9,7 km/h (2 Bft) O-NO 67 -7,7 C -9,0 C
19.01.2013 05:56 -4,9 C 80 % 1007,3 hPa 0,0 l/m 12,2 km/h (2 Bft) O-NO 67 -7,8 C -9,8 C
19.01.2013 06:01 -4,9 C 80 % 1007,3 hPa 0,0 l/m 24,1 km/h (4 Bft) SO 135 -7,8 C -12,1 C
19.01.2013 06:06 -4,9 C 80 % 1007,3 hPa 0,0 l/m 10,8 km/h (2 Bft) SO 135 -7,8 C -9,4 C
19.01.2013 06:11 -4,9 C 80 % 1007,2 hPa 0,0 l/m 16,9 km/h (3 Bft) O-NO 67 -7,8 C -10,9 C
19.01.2013 06:16 -4,9 C 81 % 1007,2 hPa 0,0 l/m 10,1 km/h (2 Bft) O-NO 67 -7,6 C -9,2 C
19.01.2013 06:21 -4,9 C 81 % 1007,0 hPa 0,0 l/m 6,5 km/h (2 Bft) O 90 -7,6 C -7,9 C
19.01.2013 06:26 -4,9 C 81 % 1006,9 hPa 0,0 l/m 13,7 km/h (3 Bft) SO 135 -7,6 C -10,2 C
19.01.2013 06:31 -5,0 C 81 % 1006,9 hPa 0,0 l/m 15,5 km/h (3 Bft) O-SO 112 -7,7 C -10,7 C
19.01.2013 06:36 -5,0 C 81 % 1007,0 hPa 0,0 l/m 10,8 km/h (2 Bft) SO 135 -7,7 C -9,5 C
19.01.2013 06:41 -5,0 C 81 % 1007,0 hPa 0,0 l/m 16,6 km/h (3 Bft) S-SO 157 -7,7 C -10,9 C
19.01.2013 06:46 -5,1 C 81 % 1007,0 hPa 0,0 l/m 13,3 km/h (3 Bft) O 90 -7,8 C -10,3 C
19.01.2013 06:51 -5,1 C 82 % 1007,0 hPa 0,0 l/m 10,1 km/h (2 Bft) SO 135 -7,7 C -9,4 C
19.01.2013 06:56 -5,1 C 82 % 1007,0 hPa 0,0 l/m 9,7 km/h (2 Bft) SO 135 -7,7 C -9,3 C
19.01.2013 07:01 -5,1 C 82 % 1006,9 hPa 0,0 l/m 15,1 km/h (3 Bft) O 90 -7,7 C -10,7 C
19.01.2013 07:06 -5,1 C 82 % 1006,9 hPa 0,0 l/m 7,6 km/h (2 Bft) SO 135 -7,7 C -8,6 C
19.01.2013 07:11 -5,1 C 82 % 1007,0 hPa 0,0 l/m 9,4 km/h (2 Bft) SO 135 -7,7 C -9,2 C
19.01.2013 07:16 -5,2 C 82 % 1007,1 hPa 0,0 l/m 5,0 km/h (1 Bft) O 90 -7,8 C -7,5 C
19.01.2013 07:21 -5,2 C 82 % 1007,0 hPa 0,0 l/m 6,1 km/h (2 Bft) S-SO 157 -7,8 C -8,1 C
19.01.2013 07:26 -5,2 C 82 % 1007,1 hPa 0,0 l/m 9,4 km/h (2 Bft) SO 135 -7,8 C -9,3 C
19.01.2013 07:31 -5,2 C 82 % 1006,9 hPa 0,0 l/m 2,9 km/h (1 Bft) SO 135 -7,8 C -5,2 C
19.01.2013 07:36 -5,2 C 82 % 1006,9 hPa 0,0 l/m 14,4 km/h (3 Bft) S-SO 157 -7,8 C -10,7 C
19.01.2013 07:41 -5,2 C 82 % 1006,9 hPa 0,0 l/m 6,5 km/h (2 Bft) O-NO 67 -7,8 C -8,2 C
19.01.2013 07:46 -5,2 C 82 % 1006,9 hPa 0,0 l/m 8,3 km/h (2 Bft) SO 135 -7,8 C -9,0 C
19.01.2013 07:51 -5,2 C 82 % 1007,1 hPa 0,0 l/m 13,7 km/h (3 Bft) O-SO 112 -7,8 C -10,5 C
19.01.2013 07:56 -5,2 C 82 % 1006,9 hPa 0,0 l/m 17,6 km/h (3 Bft) SO 135 -7,8 C -11,4 C
19.01.2013 08:01 -5,3 C 82 % 1006,9 hPa 0,0 l/m 10,4 km/h (2 Bft) O-SO 112 -7,9 C -9,8 C
19.01.2013 08:06 -5,4 C 81 % 1006,9 hPa 0,0 l/m 9,7 km/h (2 Bft) O-SO 112 -8,1 C -9,7 C
19.01.2013 08:11 -5,4 C 81 % 1007,0 hPa 0,0 l/m 13,3 km/h (3 Bft) SO 135 -8,1 C -10,7 C
19.01.2013 08:16 -5,5 C 81 % 1007,0 hPa 0,0 l/m 14,4 km/h (3 Bft) S-SO 157 -8,2 C -11,1 C
19.01.2013 08:21 -5,6 C 79 % 1007,0 hPa 0,0 l/m 10,1 km/h (2 Bft) O-NO 67 -8,6 C -10,0 C
19.01.2013 08:26 -5,6 C 79 % 1007,0 hPa 0,0 l/m 11,9 km/h (2 Bft) SO 135 -8,6 C -10,6 C
19.01.2013 08:31 -5,7 C 79 % 1006,8 hPa 0,0 l/m 21,6 km/h (4 Bft) SO 135 -8,7 C -12,7 C
19.01.2013 08:36 -5,7 C 78 % 1006,9 hPa 0,0 l/m 4,0 km/h (1 Bft) O 90 -8,9 C -5,7 C
19.01.2013 08:41 -5,7 C 78 % 1006,9 hPa 0,0 l/m 2,5 km/h (1 Bft) SO 135 -8,9 C -5,7 C
19.01.2013 08:46 -5,7 C 78 % 1006,9 hPa 0,0 l/m 7,6 km/h (2 Bft) S-SO 157 -8,9 C -9,3 C
19.01.2013 08:51 -5,6 C 78 % 1006,8 hPa 0,0 l/m 8,6 km/h (2 Bft) O-SO 112 -8,8 C -9,5 C
19.01.2013 08:56 -5,6 C 78 % 1006,7 hPa 0,0 l/m 8,3 km/h (2 Bft) O-NO 67 -8,8 C -9,4 C
19.01.2013 09:01 -5,6 C 79 % 1006,6 hPa 0,0 l/m 4,3 km/h (1 Bft) O-NO 67 -8,6 C -5,6 C
19.01.2013 09:06 -5,6 C 78 % 1006,7 hPa 0,0 l/m 5,0 km/h (1 Bft) SO 135 -8,8 C -7,9 C
19.01.2013 09:11 -5,6 C 78 % 1006,6 hPa 0,0 l/m 7,9 km/h (2 Bft) O-SO 112 -8,8 C -9,3 C
19.01.2013 09:16 -5,6 C 78 % 1006,7 hPa 0,0 l/m 7,6 km/h (2 Bft) O-SO 112 -8,8 C -9,2 C
19.01.2013 09:21 -5,6 C 78 % 1006,6 hPa 0,0 l/m 10,8 km/h (2 Bft) S-SO 157 -8,8 C -10,2 C
19.01.2013 09:26 -5,6 C 78 % 1006,6 hPa 0,0 l/m 4,7 km/h (1 Bft) O-NO 67 -8,8 C -7,8 C
19.01.2013 09:31 -5,6 C 78 % 1006,6 hPa 0,0 l/m 6,5 km/h (2 Bft) SO 135 -8,8 C -8,7 C
19.01.2013 09:36 -5,6 C 78 % 1006,5 hPa 0,0 l/m 10,8 km/h (2 Bft) O-SO 112 -8,8 C -10,2 C
19.01.2013 09:41 -5,6 C 77 % 1006,6 hPa 0,0 l/m 10,4 km/h (2 Bft) SO 135 -9,0 C -10,1 C
19.01.2013 09:46 -5,5 C 77 % 1006,6 hPa 0,0 l/m 7,6 km/h (2 Bft) O-NO 67 -8,9 C -9,0 C
19.01.2013 09:51 -5,5 C 77 % 1006,7 hPa 0,0 l/m 7,2 km/h (2 Bft) S-SO 157 -8,9 C -8,9 C
19.01.2013 09:56 -5,5 C 77 % 1006,7 hPa 0,0 l/m 5,4 km/h (1 Bft) O 90 -8,9 C -8,0 C
19.01.2013 10:01 -5,5 C 77 % 1006,7 hPa 0,0 l/m 9,4 km/h (2 Bft) O-NO 67 -8,9 C -9,7 C
19.01.2013 10:06 -5,5 C 77 % 1006,5 hPa 0,0 l/m 13,3 km/h (3 Bft) SO 135 -8,9 C -10,8 C
19.01.2013 10:11 -5,5 C 76 % 1006,6 hPa 0,0 l/m 9,7 km/h (2 Bft) O-SO 112 -9,0 C -9,8 C
19.01.2013 10:16 -5,4 C 77 % 1006,5 hPa 0,0 l/m 6,1 km/h (2 Bft) O-SO 112 -8,8 C -8,3 C
19.01.2013 10:21 -5,3 C 77 % 1006,5 hPa 0,0 l/m 10,8 km/h (2 Bft) O-SO 112 -8,7 C -9,9 C
19.01.2013 10:26 -5,3 C 76 % 1006,5 hPa 0,0 l/m 4,0 km/h (1 Bft) O 90 -8,8 C -5,3 C
19.01.2013 10:31 -5,3 C 75 % 1006,5 hPa 0,0 l/m 14,8 km/h (3 Bft) O-SO 112 -9,0 C -10,9 C
19.01.2013 10:36 -5,2 C 75 % 1006,5 hPa 0,0 l/m 7,9 km/h (2 Bft) O-SO 112 -8,9 C -8,8 C
19.01.2013 10:41 -5,2 C 75 % 1006,5 hPa 0,0 l/m 21,6 km/h (4 Bft) O-SO 112 -8,9 C -12,1 C
19.01.2013 10:46 -5,2 C 74 % 1006,6 hPa 0,0 l/m 7,2 km/h (2 Bft) O-SO 112 -9,1 C -8,5 C
19.01.2013 10:51 -5,2 C 75 % 1006,5 hPa 0,0 l/m 11,2 km/h (2 Bft) SO 135 -8,9 C -9,9 C
19.01.2013 10:56 -5,1 C 75 % 1006,5 hPa 0,0 l/m 6,1 km/h (2 Bft) O 90 -8,8 C -7,9 C
19.01.2013 11:01 -5,1 C 74 % 1006,4 hPa 0,0 l/m 9,7 km/h (2 Bft) SO 135 -9,0 C -9,3 C
19.01.2013 11:06 -5,0 C 74 % 1006,7 hPa 0,0 l/m 13,3 km/h (3 Bft) O 90 -8,9 C -10,2 C
19.01.2013 11:11 -4,9 C 74 % 1006,5 hPa 0,0 l/m 7,2 km/h (2 Bft) O-NO 67 -8,8 C -8,2 C
19.01.2013 11:16 -4,8 C 74 % 1006,5 hPa 0,0 l/m 11,2 km/h (2 Bft) SO 135 -8,7 C -9,4 C
19.01.2013 11:21 -4,7 C 74 % 1006,4 hPa 0,0 l/m 7,6 km/h (2 Bft) O-SO 112 -8,6 C -8,1 C
19.01.2013 11:26 -4,7 C 74 % 1006,5 hPa 0,0 l/m 11,9 km/h (2 Bft) SO 135 -8,6 C -9,5 C
19.01.2013 11:31 -4,7 C 74 % 1006,4 hPa 0,0 l/m 5,4 km/h (1 Bft) O-SO 112 -8,6 C -7,1 C
19.01.2013 11:36 -4,7 C 73 % 1006,3 hPa 0,0 l/m 12,2 km/h (2 Bft) O-NO 67 -8,8 C -9,5 C
19.01.2013 11:41 -4,8 C 73 % 1006,3 hPa 0,0 l/m 8,6 km/h (2 Bft) O-NO 67 -8,9 C -8,6 C
19.01.2013 11:46 -4,9 C 73 % 1006,3 hPa 0,0 l/m 9,4 km/h (2 Bft) O 90 -9,0 C -9,0 C
19.01.2013 11:51 -4,9 C 73 % 1006,2 hPa 0,0 l/m 10,4 km/h (2 Bft) O-SO 112 -9,0 C -9,3 C
19.01.2013 11:56 -4,7 C 73 % 1006,2 hPa 0,0 l/m 4,7 km/h (1 Bft) S-SO 157 -8,8 C -6,8 C
19.01.2013 12:01 -4,7 C 73 % 1006,1 hPa 0,0 l/m 15,1 km/h (3 Bft) SO 135 -8,8 C -10,2 C
19.01.2013 12:06 -4,6 C 73 % 1006,1 hPa 0,0 l/m 2,2 km/h (1 Bft) S-SO 157 -8,7 C -4,6 C
19.01.2013 12:11 -4,6 C 73 % 1006,2 hPa 0,0 l/m 3,2 km/h (1 Bft) O-SO 112 -8,7 C -4,6 C
19.01.2013 12:16 -4,5 C 73 % 1006,0 hPa 0,0 l/m 11,5 km/h (2 Bft) SO 135 -8,6 C -9,1 C
19.01.2013 12:21 -4,5 C 73 % 1006,1 hPa 0,0 l/m 11,5 km/h (2 Bft) O-SO 112 -8,6 C -9,1 C
19.01.2013 12:26 -4,6 C 73 % 1006,0 hPa 0,0 l/m 14,0 km/h (3 Bft) O-SO 112 -8,7 C -9,9 C
19.01.2013 12:31 -4,6 C 72 % 1006,1 hPa 0,0 l/m 7,6 km/h (2 Bft) O-SO 112 -8,9 C -8,0 C
19.01.2013 12:36 -4,7 C 72 % 1005,9 hPa 0,0 l/m 5,8 km/h (2 Bft) SO 135 -9,0 C -7,3 C
19.01.2013 12:41 -4,8 C 73 % 1005,9 hPa 0,0 l/m 15,8 km/h (3 Bft) O-NO 67 -8,9 C -10,5 C
19.01.2013 12:46 -4,8 C 72 % 1005,9 hPa 0,0 l/m 4,3 km/h (1 Bft) NO 45 -9,1 C -4,8 C
19.01.2013 12:51 -4,8 C 72 % 1005,9 hPa 0,0 l/m 7,6 km/h (2 Bft) O 90 -9,1 C -8,2 C
19.01.2013 12:56 -4,8 C 73 % 1005,9 hPa 0,0 l/m 4,0 km/h (1 Bft) O-SO 112 -8,9 C -4,8 C
19.01.2013 13:01 -4,8 C 73 % 1005,9 hPa 0,0 l/m 7,9 km/h (2 Bft) O-NO 67 -8,9 C -8,3 C
19.01.2013 13:06 -4,8 C 73 % 1005,7 hPa 0,0 l/m 6,5 km/h (2 Bft) NO 45 -8,9 C -7,8 C
19.01.2013 13:11 -4,9 C 74 % 1005,8 hPa 0,0 l/m 13,3 km/h (3 Bft) O 90 -8,8 C -10,1 C
19.01.2013 13:16 -4,9 C 74 % 1005,8 hPa 0,0 l/m 13,3 km/h (3 Bft) O 90 -8,8 C -10,1 C
19.01.2013 13:21 -5,0 C 74 % 1005,8 hPa 0,0 l/m 6,5 km/h (2 Bft) O 90 -8,9 C -8,0 C
19.01.2013 13:26 -5,0 C 74 % 1005,8 hPa 0,0 l/m 5,8 km/h (2 Bft) NO 45 -8,9 C -7,7 C
19.01.2013 13:31 -5,0 C 74 % 1005,8 hPa 0,0 l/m 6,5 km/h (2 Bft) O-NO 67 -8,9 C -8,0 C
19.01.2013 13:36 -5,1 C 74 % 1005,7 hPa 0,0 l/m 4,7 km/h (1 Bft) O 90 -9,0 C -7,2 C
19.01.2013 13:41 -5,1 C 74 % 1005,8 hPa 0,0 l/m 13,3 km/h (3 Bft) O-SO 112 -9,0 C -10,3 C
19.01.2013 13:46 -5,1 C 74 % 1005,7 hPa 0,0 l/m 12,2 km/h (2 Bft) NO 45 -9,0 C -10,0 C
19.01.2013 13:51 -5,1 C 74 % 1005,7 hPa 0,0 l/m 8,6 km/h (2 Bft) O-NO 67 -9,0 C -8,9 C
19.01.2013 13:56 -5,2 C 74 % 1005,6 hPa 0,0 l/m 9,0 km/h (2 Bft) NO 45 -9,1 C -9,2 C
19.01.2013 14:01 -5,2 C 75 % 1005,5 hPa 0,0 l/m 5,8 km/h (2 Bft) O 90 -8,9 C -7,9 C
19.01.2013 14:06 -5,2 C 74 % 1005,6 hPa 0,0 l/m 9,7 km/h (2 Bft) O 90 -9,1 C -9,4 C
19.01.2013 14:11 -5,3 C 74 % 1005,4 hPa 0,0 l/m 4,0 km/h (1 Bft) O 90 -9,2 C -5,3 C
19.01.2013 14:16 -5,3 C 74 % 1005,5 hPa 0,0 l/m 6,8 km/h (2 Bft) O-NO 67 -9,2 C -8,5 C
19.01.2013 14:21 -5,3 C 74 % 1005,5 hPa 0,0 l/m 11,5 km/h (2 Bft) SO 135 -9,2 C -10,1 C
19.01.2013 14:26 -5,3 C 74 % 1005,5 hPa 0,0 l/m 7,9 km/h (2 Bft) O-NO 67 -9,2 C -8,9 C
19.01.2013 14:31 -5,4 C 74 % 1005,5 hPa 0,0 l/m 8,3 km/h (2 Bft) O-NO 67 -9,3 C -9,2 C
19.01.2013 14:36 -5,4 C 74 % 1005,4 hPa 0,0 l/m 15,8 km/h (3 Bft) O-SO 112 -9,3 C -11,2 C
19.01.2013 14:41 -5,4 C 74 % 1005,4 hPa 0,0 l/m 10,1 km/h (2 Bft) O 90 -9,3 C -9,8 C
19.01.2013 14:46 -5,4 C 74 % 1005,3 hPa 0,0 l/m 11,2 km/h (2 Bft) NO 45 -9,3 C -10,1 C
19.01.2013 14:51 -5,4 C 74 % 1005,4 hPa 0,0 l/m 7,6 km/h (2 Bft) SO 135 -9,3 C -8,9 C
19.01.2013 14:56 -5,4 C 75 % 1005,4 hPa 0,0 l/m 6,1 km/h (2 Bft) O-SO 112 -9,1 C -8,3 C
19.01.2013 15:01 -5,4 C 74 % 1005,3 hPa 0,0 l/m 7,2 km/h (2 Bft) O 90 -9,3 C -8,8 C
19.01.2013 15:06 -5,4 C 74 % 1005,2 hPa 0,0 l/m 8,3 km/h (2 Bft) NO 45 -9,3 C -9,2 C
19.01.2013 15:11 -5,4 C 74 % 1005,3 hPa 0,0 l/m 4,0 km/h (1 Bft) NO 45 -9,3 C -5,4 C
19.01.2013 15:16 -5,4 C 74 % 1005,3 hPa 0,0 l/m 14,8 km/h (3 Bft) O 90 -9,3 C -11,0 C
19.01.2013 15:21 -5,4 C 74 % 1005,5 hPa 0,0 l/m 12,2 km/h (2 Bft) O-SO 112 -9,3 C -10,4 C
19.01.2013 15:26 -5,4 C 74 % 1005,4 hPa 0,0 l/m 8,6 km/h (2 Bft) SO 135 -9,3 C -9,3 C
19.01.2013 15:31 -5,4 C 74 % 1005,3 hPa 0,0 l/m 3,6 km/h (1 Bft) SO 135 -9,3 C -5,4 C
19.01.2013 15:36 -5,4 C 75 % 1005,2 hPa 0,0 l/m 7,2 km/h (2 Bft) O-SO 112 -9,1 C -8,8 C
19.01.2013 15:41 -5,4 C 75 % 1005,4 hPa 0,0 l/m 3,2 km/h (1 Bft) O-SO 112 -9,1 C -5,4 C
19.01.2013 15:46 -5,4 C 75 % 1005,5 hPa 0,0 l/m 5,0 km/h (1 Bft) O 90 -9,1 C -7,7 C
19.01.2013 15:51 -5,4 C 75 % 1005,4 hPa 0,0 l/m 6,1 km/h (2 Bft) O-NO 67 -9,1 C -8,3 C
19.01.2013 15:56 -5,4 C 75 % 1005,4 hPa 0,0 l/m 5,0 km/h (1 Bft) O-SO 112 -9,1 C -7,7 C
19.01.2013 16:01 -5,5 C 75 % 1005,5 hPa 0,0 l/m 4,3 km/h (1 Bft) O-NO 67 -9,2 C -5,5 C
19.01.2013 16:06 -5,5 C 76 % 1005,3 hPa 0,0 l/m 8,3 km/h (2 Bft) O-SO 112 -9,0 C -9,3 C
19.01.2013 16:11 -5,5 C 76 % 1005,3 hPa 0,0 l/m 6,1 km/h (2 Bft) O 90 -9,0 C -8,4 C
19.01.2013 16:16 -5,6 C 76 % 1005,2 hPa 0,0 l/m 7,6 km/h (2 Bft) O-NO 67 -9,1 C -9,2 C
19.01.2013 16:21 -5,6 C 76 % 1005,2 hPa 0,0 l/m 6,5 km/h (2 Bft) O-NO 67 -9,1 C -8,7 C
19.01.2013 16:26 -5,6 C 77 % 1005,1 hPa 0,0 l/m 6,5 km/h (2 Bft) O-NO 67 -9,0 C -8,7 C
19.01.2013 16:31 -5,6 C 77 % 1005,1 hPa 0,0 l/m 6,1 km/h (2 Bft) O 90 -9,0 C -8,5 C
19.01.2013 16:36 -5,6 C 77 % 1005,1 hPa 0,0 l/m 7,2 km/h (2 Bft) O 90 -9,0 C -9,0 C
19.01.2013 16:41 -5,6 C 77 % 1005,1 hPa 0,0 l/m 5,4 km/h (1 Bft) SO 135 -9,0 C -8,2 C
19.01.2013 16:46 -5,6 C 77 % 1005,1 hPa 0,0 l/m 7,6 km/h (2 Bft) O-SO 112 -9,0 C -9,2 C
19.01.2013 16:51 -5,6 C 77 % 1005,2 hPa 0,0 l/m 3,6 km/h (1 Bft) O-SO 112 -9,0 C -5,6 C
19.01.2013 16:56 -5,6 C 77 % 1005,2 hPa 0,0 l/m 14,4 km/h (3 Bft) O-NO 67 -9,0 C -11,2 C
19.01.2013 17:01 -5,7 C 77 % 1005,3 hPa 0,0 l/m 10,4 km/h (2 Bft) O-SO 112 -9,1 C -10,2 C
19.01.2013 17:06 -5,7 C 77 % 1005,2 hPa 0,0 l/m 9,7 km/h (2 Bft) O 90 -9,1 C -10,0 C
19.01.2013 17:11 -5,8 C 77 % 1005,2 hPa 0,0 l/m 3,6 km/h (1 Bft) O-NO 67 -9,2 C -5,8 C
19.01.2013 17:16 -5,9 C 76 % 1005,2 hPa 0,0 l/m 5,4 km/h (1 Bft) NO 45 -9,4 C -8,5 C
19.01.2013 17:21 -6,0 C 76 % 1005,3 hPa 0,0 l/m 6,1 km/h (2 Bft) O-NO 67 -9,5 C -9,0 C
19.01.2013 17:26 -6,1 C 76 % 1005,3 hPa 0,0 l/m 4,3 km/h (1 Bft) O 90 -9,6 C -6,1 C
19.01.2013 17:31 -6,1 C 76 % 1005,3 hPa 0,0 l/m 7,2 km/h (2 Bft) O 90 -9,6 C -9,6 C
19.01.2013 17:36 -6,1 C 76 % 1005,1 hPa 0,0 l/m 5,4 km/h (1 Bft) O-SO 112 -9,6 C -8,7 C
19.01.2013 17:41 -6,1 C 76 % 1005,2 hPa 0,0 l/m 3,2 km/h (1 Bft) O 90 -9,6 C -6,1 C
19.01.2013 17:46 -6,1 C 76 % 1005,2 hPa 0,0 l/m 13,7 km/h (3 Bft) SO 135 -9,6 C -11,6 C
19.01.2013 17:51 -6,1 C 76 % 1005,2 hPa 0,0 l/m 5,0 km/h (1 Bft) O-NO 67 -9,6 C -8,5 C
19.01.2013 17:56 -6,1 C 76 % 1005,2 hPa 0,0 l/m 11,9 km/h (2 Bft) O-NO 67 -9,6 C -11,2 C
19.01.2013 18:01 -6,2 C 75 % 1005,1 hPa 0,0 l/m 6,8 km/h (2 Bft) O-NO 67 -9,9 C -9,5 C
19.01.2013 18:06 -6,4 C 75 % 1005,0 hPa 0,0 l/m 4,3 km/h (1 Bft) O-NO 67 -10,1 C -6,4 C
19.01.2013 18:11 -6,4 C 76 % 1005,1 hPa 0,0 l/m 4,7 km/h (1 Bft) O 90 -9,9 C -8,7 C
19.01.2013 18:16 -6,5 C 76 % 1005,1 hPa 0,0 l/m 5,0 km/h (1 Bft) O-NO 67 -10,0 C -9,0 C
19.01.2013 18:21 -6,6 C 77 % 1005,1 hPa 0,0 l/m 2,2 km/h (1 Bft) O 90 -9,9 C -6,6 C
19.01.2013 18:26 -6,6 C 77 % 1005,1 hPa 0,0 l/m 4,3 km/h (1 Bft) O-NO 67 -9,9 C -6,6 C
19.01.2013 18:31 -6,7 C 77 % 1005,2 hPa 0,0 l/m 2,5 km/h (1 Bft) O 90 -10,0 C -6,7 C
19.01.2013 18:36 -6,7 C 77 % 1005,1 hPa 0,0 l/m 7,9 km/h (2 Bft) SO 135 -10,0 C -10,6 C
19.01.2013 18:41 -6,8 C 78 % 1005,1 hPa 0,0 l/m 0,0 km/h (0 Bft) O 90 -10,0 C -6,8 C
19.01.2013 18:46 -6,8 C 78 % 1005,1 hPa 0,0 l/m 5,0 km/h (1 Bft) O-NO 67 -10,0 C -9,3 C
19.01.2013 18:51 -6,9 C 78 % 1005,1 hPa 0,0 l/m 0,0 km/h (0 Bft) O 90 -10,1 C -6,9 C
19.01.2013 18:56 -6,9 C 78 % 1005,0 hPa 0,0 l/m 1,8 km/h (1 Bft) O-NO 67 -10,1 C -6,9 C
19.01.2013 19:01 -6,9 C 78 % 1005,1 hPa 0,0 l/m 2,5 km/h (1 Bft) O-NO 67 -10,1 C -6,9 C
19.01.2013 19:06 -6,9 C 79 % 1005,1 hPa 0,0 l/m 5,8 km/h (2 Bft) O-NO 67 -9,9 C -9,9 C
19.01.2013 19:11 -7,0 C 79 % 1005,1 hPa 0,0 l/m 3,6 km/h (1 Bft) O-NO 67 -10,0 C -7,0 C
19.01.2013 19:16 -7,1 C 79 % 1005,2 hPa 0,0 l/m 2,5 km/h (1 Bft) O-NO 67 -10,1 C -7,1 C
19.01.2013 19:21 -7,1 C 79 % 1005,2 hPa 0,0 l/m 4,3 km/h (1 Bft) O-NO 67 -10,1 C -7,1 C
19.01.2013 19:26 -7,1 C 79 % 1005,1 hPa 0,0 l/m 5,0 km/h (1 Bft) O-NO 67 -10,1 C -9,6 C
19.01.2013 19:31 -7,1 C 80 % 1005,2 hPa 0,0 l/m 3,2 km/h (1 Bft) SO 135 -9,9 C -7,1 C
19.01.2013 19:36 -7,1 C 80 % 1005,2 hPa 0,0 l/m 4,7 km/h (1 Bft) O-NO 67 -9,9 C -9,5 C
19.01.2013 19:41 -7,1 C 80 % 1005,3 hPa 0,0 l/m 4,0 km/h (1 Bft) NO 45 -9,9 C -7,1 C
19.01.2013 19:46 -7,2 C 80 % 1005,4 hPa 0,0 l/m 1,8 km/h (1 Bft) O 90 -10,0 C -7,2 C
19.01.2013 19:51 -7,2 C 80 % 1005,4 hPa 0,0 l/m 3,2 km/h (1 Bft) O-NO 67 -10,0 C -7,2 C
19.01.2013 19:56 -7,2 C 80 % 1005,4 hPa 0,0 l/m 1,8 km/h (1 Bft) O-NO 67 -10,0 C -7,2 C
19.01.2013 20:01 -7,2 C 81 % 1005,5 hPa 0,0 l/m 0,0 km/h (0 Bft) NO 45 -9,9 C -7,2 C
19.01.2013 20:06 -7,3 C 81 % 1005,5 hPa 0,0 l/m 0,0 km/h (0 Bft) O-NO 67 -10,0 C -7,3 C
19.01.2013 20:11 -7,4 C 80 % 1005,5 hPa 0,0 l/m 0,0 km/h (0 Bft) NO 45 -10,2 C -7,4 C
19.01.2013 20:16 -7,4 C 80 % 1005,5 hPa 0,0 l/m 0,0 km/h (0 Bft) O-NO 67 -10,2 C -7,4 C
19.01.2013 20:21 -7,4 C 80 % 1005,6 hPa 0,0 l/m 0,0 km/h (0 Bft) O-NO 67 -10,2 C -7,4 C
19.01.2013 20:26 -7,5 C 81 % 1005,6 hPa 0,0 l/m 0,0 km/h (0 Bft) O-NO 67 -10,2 C -7,5 C
19.01.2013 20:31 -7,6 C 81 % 1005,6 hPa 0,0 l/m 2,5 km/h (1 Bft) NO 45 -10,3 C -7,6 C
19.01.2013 20:36 -7,6 C 81 % 1005,6 hPa 0,0 l/m 2,2 km/h (1 Bft) NO 45 -10,3 C -7,6 C
19.01.2013 20:41 -7,7 C 81 % 1005,5 hPa 0,0 l/m 2,5 km/h (1 Bft) O-NO 67 -10,4 C -7,7 C
19.01.2013 20:46 -7,7 C 81 % 1005,6 hPa 0,0 l/m 0,0 km/h (0 Bft) O 90 -10,4 C -7,7 C
19.01.2013 20:51 -7,7 C 81 % 1005,6 hPa 0,0 l/m 2,9 km/h (1 Bft) O 90 -10,4 C -7,7 C
19.01.2013 20:56 -7,8 C 82 % 1005,6 hPa 0,0 l/m 3,6 km/h (1 Bft) O-NO 67 -10,3 C -7,8 C
19.01.2013 21:01 -7,9 C 82 % 1005,5 hPa 0,0 l/m 2,2 km/h (1 Bft) NO 45 -10,4 C -7,9 C
19.01.2013 21:06 -7,9 C 82 % 1005,5 hPa 0,0 l/m 4,3 km/h (1 Bft) NO 45 -10,4 C -7,9 C
19.01.2013 21:11 -7,9 C 82 % 1005,5 hPa 0,0 l/m 5,0 km/h (1 Bft) O-NO 67 -10,4 C -10,6 C
19.01.2013 21:16 -7,9 C 82 % 1005,5 hPa 0,0 l/m 3,2 km/h (1 Bft) O-NO 67 -10,4 C -7,9 C
19.01.2013 21:21 -7,9 C 82 % 1005,5 hPa 0,0 l/m 2,9 km/h (1 Bft) O-NO 67 -10,4 C -7,9 C
19.01.2013 21:26 -8,0 C 82 % 1005,5 hPa 0,0 l/m 0,0 km/h (0 Bft) O-NO 67 -10,5 C -8,0 C
19.01.2013 21:31 -8,1 C 82 % 1005,6 hPa 0,0 l/m 1,1 km/h (1 Bft) O-NO 67 -10,6 C -8,1 C
19.01.2013 21:36 -8,1 C 82 % 1005,7 hPa 0,0 l/m 0,0 km/h (0 Bft) O-NO 67 -10,6 C -8,1 C
19.01.2013 21:41 -8,1 C 83 % 1005,8 hPa 0,0 l/m 2,9 km/h (1 Bft) O 90 -10,5 C -8,1 C
19.01.2013 21:46 -8,1 C 83 % 1005,8 hPa 0,0 l/m 2,2 km/h (1 Bft) NO 45 -10,5 C -8,1 C
19.01.2013 21:51 -8,1 C 83 % 1005,8 hPa 0,0 l/m 1,4 km/h (1 Bft) NO 45 -10,5 C -8,1 C
19.01.2013 21:56 -8,1 C 83 % 1005,7 hPa 0,0 l/m 0,0 km/h (0 Bft) O 90 -10,5 C -8,1 C
19.01.2013 22:01 -8,1 C 83 % 1005,6 hPa 0,0 l/m 1,1 km/h (1 Bft) O 90 -10,5 C -8,1 C
19.01.2013 22:06 -8,2 C 83 % 1005,6 hPa 0,0 l/m 0,0 km/h (0 Bft) NO 45 -10,6 C -8,2 C
19.01.2013 22:11 -8,2 C 83 % 1005,6 hPa 0,0 l/m 2,5 km/h (1 Bft) NO 45 -10,6 C -8,2 C
19.01.2013 22:16 -8,2 C 83 % 1005,5 hPa 0,0 l/m 4,3 km/h (1 Bft) O-NO 67 -10,6 C -8,2 C
19.01.2013 22:21 -8,2 C 83 % 1005,6 hPa 0,0 l/m 1,8 km/h (1 Bft) NO 45 -10,6 C -8,2 C
19.01.2013 22:26 -8,4 C 83 % 1005,5 hPa 0,0 l/m 2,2 km/h (1 Bft) NO 45 -10,8 C -8,4 C
19.01.2013 22:31 -8,4 C 83 % 1005,5 hPa 0,0 l/m 0,0 km/h (0 Bft) O-NO 67 -10,8 C -8,4 C
19.01.2013 22:36 -8,4 C 84 % 1005,6 hPa 0,0 l/m 4,3 km/h (1 Bft) NO 45 -10,6 C -8,4 C
19.01.2013 22:41 -8,4 C 84 % 1005,6 hPa 0,0 l/m 0,0 km/h (0 Bft) NO 45 -10,6 C -8,4 C
19.01.2013 22:46 -8,4 C 84 % 1005,6 hPa 0,0 l/m 4,7 km/h (1 Bft) NO 45 -10,6 C -10,9 C
19.01.2013 22:51 -8,4 C 84 % 1005,7 hPa 0,0 l/m 2,5 km/h (1 Bft) O-NO 67 -10,6 C -8,4 C
19.01.2013 22:56 -8,4 C 84 % 1005,8 hPa 0,0 l/m 1,8 km/h (1 Bft) NO 45 -10,6 C -8,4 C
19.01.2013 23:01 -8,4 C 84 % 1005,7 hPa 0,0 l/m 2,2 km/h (1 Bft) O-NO 67 -10,6 C -8,4 C
19.01.2013 23:06 -8,4 C 84 % 1005,7 hPa 0,0 l/m 0,0 km/h (0 Bft) O-NO 67 -10,6 C -8,4 C
19.01.2013 23:11 -8,4 C 84 % 1005,9 hPa 0,0 l/m 0,0 km/h (0 Bft) O-NO 67 -10,6 C -8,4 C
19.01.2013 23:16 -8,4 C 84 % 1005,5 hPa 0,0 l/m 2,5 km/h (1 Bft) O-NO 67 -10,6 C -8,4 C
19.01.2013 23:21 -8,5 C 84 % 1005,6 hPa 0,0 l/m 2,2 km/h (1 Bft) NO 45 -10,7 C -8,5 C
19.01.2013 23:26 -8,5 C 84 % 1005,5 hPa 0,0 l/m 1,8 km/h (1 Bft) O-NO 67 -10,7 C -8,5 C
19.01.2013 23:31 -8,5 C 84 % 1005,6 hPa 0,0 l/m 1,8 km/h (1 Bft) NO 45 -10,7 C -8,5 C
19.01.2013 23:36 -8,5 C 84 % 1005,7 hPa 0,0 l/m 0,0 km/h (0 Bft) NO 45 -10,7 C -8,5 C
19.01.2013 23:41 -8,5 C 84 % 1005,5 hPa 0,0 l/m 1,8 km/h (1 Bft) O-NO 67 -10,7 C -8,5 C
19.01.2013 23:46 -8,5 C 84 % 1005,6 hPa 0,0 l/m 1,4 km/h (1 Bft) NO 45 -10,7 C -8,5 C
19.01.2013 23:51 -8,5 C 84 % 1005,5 hPa 0,0 l/m 0,0 km/h (0 Bft) NO 45 -10,7 C -8,5 C
19.01.2013 23:56 -8,5 C 84 % 1005,5 hPa 0,0 l/m 0,0 km/h (0 Bft) O-NO 67 -10,7 C -8,5 C
_ Min-Zeit 23:21 12:31 18:06 - 18:41 - - 22:26 08:31
Minimum _ -8,5 C 72 % 1005,0 hPa - 0,0 km/h (0 Bft) - - -10,8 C -12,7 C
_ Max-Zeit 00:01 22:36 00:06 00:01 06:01 - - 00:16 00:06
Maximum _ -2,7 C 84 % 1010,0 hPa 0,0 l/m 24,1 km/h
SO (4 Bft)
- - -6,0 C -2,7 C
Durchschnitt _ -5,5 C 78 % 1006,6 hPa #0,0 l/m 7,8 km/h (2 Bft) O-NO - -8,8 C -8,4 C
(c) by David Heller